Terminal Aerodrome Forecast
Issued by NWS

Home | Current Version | Previous Version | Text Only | Print | Product List | Glossary On
Versions: 1 2 3 4 5 6 7 8 9 10 11 12 13 14 15 16
694
FTUS45 KTFX 271730
TAFGTF
TAF
KGTF 271730Z 2718/2818 23012KT P6SM FEW040 BKN070
      TEMPO 2718/2722 25015G20KT 3SM -SHRA SCT020 BKN040
     FM272200 27015G20KT 3SM -SHRA SCT010 OVC030
     FM280300 24008KT P6SM SCT030 SCT050=

USA.gov is the U.S. government's official web portal to all federal, state and local government web resources and services.